Time;durP1;ratioP1;P1;durP2;ratioP2;P2;SDS_P1;SDS_P2;PMS_P1;PMS_P2;Temp;Humidity;BMP_temperature;BMP_pressure;BME280_temperature;BME280_humidity;BME280_pressure;Samples;Min_cycle;Max_cycle;Signal;HPM_P1;HPM_P2
2023/08/02 00:02:21;;;;;;;;;;;;;;;;;;5011851;28;20016;-59
2023/08/02 00:04:47;;;;;;;;;;;;;;;;;;5010611;28;19975;-60
2023/08/02 00:07:13;;;;;;;;;;;;;;;;;;5009772;28;19960;-60
2023/08/02 00:09:39;;;;;;;;;;;;;;;;;;5009610;28;19917;-64
2023/08/02 00:12:05;;;;;;;;;;;;;;;;;;5010762;28;19968;-61
2023/08/02 00:14:31;;;;;;;;;;;;;;;;;;5008460;28;20488;-59
2023/08/02 00:16:57;;;;;;;;;;;;;;;;;;5011750;28;19992;-59
2023/08/02 00:19:23;;;;;;;;;;;;;;;;;;5011192;28;19921;-60
2023/08/02 00:21:49;;;;;;;;;;;;;;;;;;4993834;28;19964;-59
2023/08/02 00:24:15;;;;;;;;;;;;;;;;;;5009792;28;20364;-68
2023/08/02 00:26:41;;;;;;;;;;;;;;;;;;4993225;28;19920;-70
2023/08/02 00:29:06;;;;;;;;;;;;;;;;;;5010876;28;19985;-67
2023/08/02 00:31:32;;;;;;;;;;;;;;;;;;5011340;28;19959;-68
2023/08/02 00:33:58;;;;;;;;;;;;;;;;;;4990811;28;20008;-68
2023/08/02 00:36:24;;;;;;;;;;;;;;;;;;5010942;28;20364;-68
2023/08/02 00:38:50;;;;;;;;;;;;;;;;;;5010464;28;19917;-69
2023/08/02 00:41:16;;;;;;;;;;;;;;;;;;5009769;28;19983;-70
2023/08/02 00:43:42;;;;;;;;;;;;;;;;;;5010396;28;19921;-69
2023/08/02 00:46:08;;;;;;;;;;;;;;;;;;5013704;28;19913;-67
2023/08/02 00:48:34;;;;;;;;;;;;;;;;;;5014443;28;19960;-69
2023/08/02 00:50:59;;;;;;;;;;;;;;;;;;5011788;28;19964;-68
2023/08/02 00:53:25;;;;;;;;;;;;;;;;;;5012416;28;20012;-69
2023/08/02 00:55:51;;;;;;;;;;;;;;;;;;5015300;28;19916;-69
2023/08/02 00:58:17;;;;;;;;;;;;;;;;;;5012990;28;19980;-68
2023/08/02 01:00:43;;;;;;;;;;;;;;;;;;5011010;28;19949;-68
2023/08/02 01:03:09;;;;;;;;;;;;;;;;;;5012124;28;20027;-69
2023/08/02 01:05:35;;;;;;;;;;;;;;;;;;5013527;28;19984;-68
2023/08/02 01:08:01;;;;;;;;;;;;;;;;;;5012733;28;20369;-69
2023/08/02 01:10:27;;;;;;;;;;;;;;;;;;5012906;28;19949;-69
2023/08/02 01:12:53;;;;;;;;;;;;;;;;;;5011912;28;20083;-69
2023/08/02 01:15:18;;;;;;;;;;;;;;;;;;5013823;28;19992;-70
2023/08/02 01:17:44;;;;;;;;;;;;;;;;;;4996337;28;20387;-69
2023/08/02 01:20:10;;;;;;;;;;;;;;;;;;5013224;28;20000;-69
2023/08/02 01:22:36;;;;;;;;;;;;;;;;;;5011534;28;20395;-69
2023/08/02 01:25:02;;;;;;;;;;;;;;;;;;5011133;28;19964;-69
2023/08/02 01:27:28;;;;;;;;;;;;;;;;;;5014217;28;19953;-68
2023/08/02 01:29:54;;;;;;;;;;;;;;;;;;5013525;28;20380;-68
2023/08/02 01:32:21;;;;;;;;;;;;;;;;;;5013074;28;19959;-68
2023/08/02 01:34:47;;;;;;;;;;;;;;;;;;4995405;28;19921;-66
2023/08/02 01:37:12;;;;;;;;;;;;;;;;;;5013522;28;20060;-66
2023/08/02 01:39:38;;;;;;;;;;;;;;;;;;5013422;28;19921;-66
2023/08/02 01:42:04;;;;;;;;;;;;;;;;;;5010704;28;19983;-66
2023/08/02 01:44:30;;;;;;;;;;;;;;;;;;5012961;28;19917;-66
2023/08/02 01:46:56;;;;;;;;;;;;;;;;;;5012305;28;19972;-66
2023/08/02 01:49:22;;;;;;;;;;;;;;;;;;5012554;28;20001;-66
2023/08/02 01:51:48;;;;;;;;;;;;;;;;;;5008494;28;19948;-65
2023/08/02 01:54:14;;;;;;;;;;;;;;;;;;5013282;28;19959;-66
2023/08/02 01:56:40;;;;;;;;;;;;;;;;;;5011542;28;19913;-66
2023/08/02 01:59:06;;;;;;;;;;;;;;;;;;5012233;28;20044;-66
2023/08/02 02:01:32;;;;;;;;;;;;;;;;;;5011179;28;20012;-66
2023/08/02 02:03:58;;;;;;;;;;;;;;;;;;5013202;28;20483;-65
2023/08/02 02:06:24;;;;;;;;;;;;;;;;;;5011990;28;20012;-66
2023/08/02 02:08:50;;;;;;;;;;;;;;;;;;5011956;28;19967;-66
2023/08/02 02:11:15;;;;;;;;;;;;;;;;;;5010557;28;20391;-65
2023/08/02 02:13:41;;;;;;;;;;;;;;;;;;5012569;28;19945;-66
2023/08/02 02:16:07;;;;;;;;;;;;;;;;;;5010937;28;19917;-66
2023/08/02 02:18:33;;;;;;;;;;;;;;;;;;5013166;28;19961;-66
2023/08/02 02:20:59;;;;;;;;;;;;;;;;;;5012871;28;19914;-66
2023/08/02 02:23:25;;;;;;;;;;;;;;;;;;5012696;28;20677;-66
2023/08/02 02:25:51;;;;;;;;;;;;;;;;;;5011376;28;19940;-65
2023/08/02 02:28:19;;;;;;;;;;;;;;;;;;5012004;28;19935;-66
2023/08/02 02:30:45;;;;;;;;;;;;;;;;;;5012342;28;19921;-65
2023/08/02 02:33:10;;;;;;;;;;;;;;;;;;5012354;28;19960;-66
2023/08/02 02:35:36;;;;;;;;;;;;;;;;;;5010780;28;20454;-66
2023/08/02 02:38:02;;;;;;;;;;;;;;;;;;5012140;28;19960;-65
2023/08/02 02:40:28;;;;;;;;;;;;;;;;;;5011615;28;20015;-66
2023/08/02 02:42:54;;;;;;;;;;;;;;;;;;5012898;28;19924;-66
2023/08/02 02:45:20;;;;;;;;;;;;;;;;;;5011744;28;19913;-60
2023/08/02 02:47:46;;;;;;;;;;;;;;;;;;5011190;28;19953;-59
2023/08/02 02:50:12;;;;;;;;;;;;;;;;;;5012106;28;19920;-61
2023/08/02 02:52:40;;;;;;;;;;;;;;;;;;5012190;28;20281;-59
2023/08/02 02:55:06;;;;;;;;;;;;;;;;;;5012269;28;19914;-60
2023/08/02 02:57:32;;;;;;;;;;;;;;;;;;5011476;28;19972;-63
2023/08/02 02:59:58;;;;;;;;;;;;;;;;;;5011536;28;20344;-60
2023/08/02 03:02:24;;;;;;;;;;;;;;;;;;5011311;28;20028;-60
2023/08/02 03:04:50;;;;;;;;;;;;;;;;;;5012173;28;19922;-60
2023/08/02 03:07:16;;;;;;;;;;;;;;;;;;5010789;28;19960;-60
2023/08/02 03:09:42;;;;;;;;;;;;;;;;;;5012656;28;19943;-60
2023/08/02 03:12:08;;;;;;;;;;;;;;;;;;5011902;28;19949;-60
2023/08/02 03:14:33;;;;;;;;;;;;;;;;;;5012862;28;20448;-60
2023/08/02 03:16:59;;;;;;;;;;;;;;;;;;5009563;28;19913;-60
2023/08/02 03:19:25;;;;;;;;;;;;;;;;;;5010546;28;19917;-60
2023/08/02 03:21:51;;;;;;;;;;;;;;;;;;5011489;28;19920;-60
2023/08/02 03:24:17;;;;;;;;;;;;;;;;;;5010940;28;19917;-60
2023/08/02 03:26:43;;;;;;;;;;;;;;;;;;5010707;28;19987;-60
2023/08/02 03:29:09;;;;;;;;;;;;;;;;;;5011867;28;20036;-59
2023/08/02 03:31:35;;;;;;;;;;;;;;;;;;5010609;28;19924;-61
2023/08/02 03:34:01;;;;;;;;;;;;;;;;;;5011164;28;19983;-60
2023/08/02 03:36:26;;;;;;;;;;;;;;;;;;5008409;28;19917;-60
2023/08/02 03:38:52;;;;;;;;;;;;;;;;;;5010050;28;19932;-59
2023/08/02 03:41:18;;;;;;;;;;;;;;;;;;5010489;28;19920;-60
2023/08/02 03:43:44;;;;;;;;;;;;;;;;;;5010943;28;19961;-65
2023/08/02 03:46:11;;;;;;;;;;;;;;;;;;5009048;28;20336;-60
2023/08/02 03:48:37;;;;;;;;;;;;;;;;;;5009961;28;19917;-60
2023/08/02 03:51:03;;;;;;;;;;;;;;;;;;5008576;28;19964;-60
2023/08/02 03:53:29;;;;;;;;;;;;;;;;;;5010323;28;20329;-63
2023/08/02 03:55:55;;;;;;;;;;;;;;;;;;5010377;28;19914;-65
2023/08/02 03:58:20;;;;;;;;;;;;;;;;;;5008282;28;19913;-66
2023/08/02 04:00:46;;;;;;;;;;;;;;;;;;5009717;28;20291;-66
2023/08/02 04:03:12;;;;;;;;;;;;;;;;;;5003624;28;20000;-65
2023/08/02 04:05:38;;;;;;;;;;;;;;;;;;5010421;28;20012;-66
2023/08/02 04:08:04;;;;;;;;;;;;;;;;;;5006675;28;19940;-65
2023/08/02 04:10:30;;;;;;;;;;;;;;;;;;5010453;28;19920;-66
2023/08/02 04:12:56;;;;;;;;;;;;;;;;;;5007514;28;19953;-65
2023/08/02 04:15:22;;;;;;;;;;;;;;;;;;5009149;28;20284;-66
2023/08/02 04:17:49;;;;;;;;;;;;;;;;;;5011431;28;20273;-65
2023/08/02 04:20:15;;;;;;;;;;;;;;;;;;5012420;28;19917;-65
2023/08/02 04:22:40;;;;;;;;;;;;;;;;;;5013691;28;19952;-66
2023/08/02 04:25:06;;;;;;;;;;;;;;;;;;5012127;28;20292;-66
2023/08/02 04:27:32;;;;;;;;;;;;;;;;;;5014257;28;19914;-66
2023/08/02 04:29:58;;;;;;;;;;;;;;;;;;5013492;28;19909;-66
2023/08/02 04:32:24;;;;;;;;;;;;;;;;;;5012875;28;20023;-65
2023/08/02 04:34:50;;;;;;;;;;;;;;;;;;5012918;28;19965;-66
2023/08/02 04:37:16;;;;;;;;;;;;;;;;;;5012544;28;19923;-65
2023/08/02 04:39:42;;;;;;;;;;;;;;;;;;5013406;28;19949;-65
2023/08/02 04:42:08;;;;;;;;;;;;;;;;;;5012570;28;20024;-66
2023/08/02 04:44:34;;;;;;;;;;;;;;;;;;5013495;28;19976;-66
2023/08/02 04:46:59;;;;;;;;;;;;;;;;;;5009814;28;20004;-66
2023/08/02 04:49:25;;;;;;;;;;;;;;;;;;5014525;28;19933;-66
2023/08/02 04:51:51;;;;;;;;;;;;;;;;;;5011818;28;20012;-66
2023/08/02 04:54:17;;;;;;;;;;;;;;;;;;5012220;28;20333;-66
2023/08/02 04:56:43;;;;;;;;;;;;;;;;;;5011832;28;19948;-66
2023/08/02 04:59:10;;;;;;;;;;;;;;;;;;5012591;28;19919;-66
2023/08/02 05:01:36;;;;;;;;;;;;;;;;;;5012171;28;19909;-66
2023/08/02 05:04:01;;;;;;;;;;;;;;;;;;5011857;28;20797;-60
2023/08/02 05:06:27;;;;;;;;;;;;;;;;;;5013266;28;19921;-60
2023/08/02 05:08:55;;;;;;;;;;;;;;;;;;5013322;28;21513;-61
2023/08/02 05:11:21;;;;;;;;;;;;;;;;;;5013498;28;19949;-59
2023/08/02 05:13:47;;;;;;;;;;;;;;;;;;5013767;28;19963;-61
2023/08/02 05:16:13;;;;;;;;;;;;;;;;;;5013307;28;19917;-62
2023/08/02 05:18:39;;;;;;;;;;;;;;;;;;5013689;28;19924;-59
2023/08/02 05:21:04;;;;;;;;;;;;;;;;;;5012333;28;19998;-60
2023/08/02 05:23:30;;;;;;;;;;;;;;;;;;5013494;28;19960;-60
2023/08/02 05:25:56;;;;;;;;;;;;;;;;;;5011727;28;20386;-59
2023/08/02 05:28:22;;;;;;;;;;;;;;;;;;5013441;28;20044;-59
2023/08/02 05:30:48;;;;;;;;;;;;;;;;;;5011976;28;20043;-60
2023/08/02 05:33:14;;;;;;;;;;;;;;;;;;5010661;28;20679;-62
2023/08/02 05:35:40;;;;;;;;;;;;;;;;;;5012257;28;20393;-60
2023/08/02 05:38:06;;;;;;;;;;;;;;;;;;5012193;28;19966;-59
2023/08/02 05:40:32;;;;;;;;;;;;;;;;;;5011604;28;20273;-59
2023/08/02 05:42:58;;;;;;;;;;;;;;;;;;5011907;28;19923;-60
2023/08/02 05:45:23;;;;;;;;;;;;;;;;;;5012847;28;19914;-62
2023/08/02 05:47:50;;;;;;;;;;;;;;;;;;5014455;28;19924;-60
2023/08/02 05:50:16;;;;;;;;;;;;;;;;;;5012413;28;20392;-62
2023/08/02 05:52:42;;;;;;;;;;;;;;;;;;5013172;28;19909;-60
2023/08/02 05:55:08;;;;;;;;;;;;;;;;;;5013447;28;19919;-61
2023/08/02 05:57:34;;;;;;;;;;;;;;;;;;5012476;28;19960;-61
2023/08/02 06:00:00;;;;;;;;;;;;;;;;;;5010202;28;19921;-61
2023/08/02 06:02:26;;;;;;;;;;;;;;;;;;5011587;28;19913;-59
2023/08/02 06:04:52;;;;;;;;;;;;;;;;;;5012779;28;20011;-59
2023/08/02 06:07:18;;;;;;;;;;;;;;;;;;5012814;28;20575;-60
2023/08/02 06:09:44;;;;;;;;;;;;;;;;;;5010463;28;19913;-62
2023/08/02 06:12:10;;;;;;;;;;;;;;;;;;5002413;28;19969;-59
2023/08/02 06:14:36;;;;;;;;;;;;;;;;;;5010071;28;19999;-59
2023/08/02 06:17:02;;;;;;;;;;;;;;;;;;5012584;28;19957;-59
2023/08/02 06:19:28;;;;;;;;;;;;;;;;;;5012042;28;20435;-60
2023/08/02 06:21:54;;;;;;;;;;;;;;;;;;5012737;28;19924;-59
2023/08/02 06:24:21;;;;;;;;;;;;;;;;;;5012794;28;19956;-60
2023/08/02 06:26:47;;;;;;;;;;;;;;;;;;5012328;28;19967;-60
2023/08/02 06:29:13;;;;;;;;;;;;;;;;;;5012346;28;19914;-60
2023/08/02 06:31:39;;;;;;;;;;;;;;;;;;5012069;28;19994;-61
2023/08/02 06:34:06;;;;;;;;;;;;;;;;;;5010844;28;19949;-60
2023/08/02 06:36:32;;;;;;;;;;;;;;;;;;4993990;28;19914;-59
2023/08/02 06:38:58;;;;;;;;;;;;;;;;;;5011996;28;19925;-60
2023/08/02 06:41:24;;;;;;;;;;;;;;;;;;5011368;28;19920;-60
2023/08/02 06:43:50;;;;;;;;;;;;;;;;;;5011991;28;19914;-59
2023/08/02 06:46:16;;;;;;;;;;;;;;;;;;5012050;28;19913;-60
2023/08/02 06:48:41;;;;;;;;;;;;;;;;;;5010166;28;19963;-60
2023/08/02 06:51:07;;;;;;;;;;;;;;;;;;5011940;28;20353;-63
2023/08/02 06:53:33;;;;;;;;;;;;;;;;;;5012216;28;19975;-60
2023/08/02 06:55:59;;;;;;;;;;;;;;;;;;5011869;28;19917;-61
2023/08/02 06:58:25;;;;;;;;;;;;;;;;;;5011688;28;20439;-59
2023/08/02 07:00:51;;;;;;;;;;;;;;;;;;5012091;28;19909;-60
2023/08/02 07:03:17;;;;;;;;;;;;;;;;;;5009532;28;20064;-60
2023/08/02 07:05:43;;;;;;;;;;;;;;;;;;5010242;28;19932;-60
2023/08/02 07:08:09;;;;;;;;;;;;;;;;;;5012175;28;19949;-59
2023/08/02 07:10:35;;;;;;;;;;;;;;;;;;5010564;28;19951;-60
2023/08/02 07:13:01;;;;;;;;;;;;;;;;;;5005699;28;19965;-60
2023/08/02 07:15:27;;;;;;;;;;;;;;;;;;5011691;28;19923;-59
2023/08/02 07:17:52;;;;;;;;;;;;;;;;;;5008867;28;19921;-60
2023/08/02 07:20:18;;;;;;;;;;;;;;;;;;5009939;28;19963;-60
2023/08/02 07:22:45;;;;;;;;;;;;;;;;;;5003307;28;19913;-61
2023/08/02 07:25:10;;;;;;;;;;;;;;;;;;5011675;28;19921;-69
2023/08/02 07:27:36;;;;;;;;;;;;;;;;;;5008320;28;20280;-68
2023/08/02 07:30:03;;;;;;;;;;;;;;;;;;5009388;28;19963;-69
2023/08/02 07:32:28;;;;;;;;;;;;;;;;;;5006765;28;20242;-68
2023/08/02 07:34:54;;;;;;;;;;;;;;;;;;5011701;28;19949;-68
2023/08/02 07:37:20;;;;;;;;;;;;;;;;;;5009873;28;19923;-67
2023/08/02 07:39:46;;;;;;;;;;;;;;;;;;5007513;28;19953;-69
2023/08/02 07:42:12;;;;;;;;;;;;;;;;;;4991208;28;20272;-69
2023/08/02 07:44:38;;;;;;;;;;;;;;;;;;5011408;28;20388;-67
2023/08/02 07:47:04;;;;;;;;;;;;;;;;;;5009402;28;19920;-65
2023/08/02 07:49:30;;;;;;;;;;;;;;;;;;5011376;28;19956;-67
2023/08/02 07:51:56;;;;;;;;;;;;;;;;;;5007646;28;19917;-67
2023/08/02 07:54:22;;;;;;;;;;;;;;;;;;5012603;28;20419;-67
2023/08/02 07:56:47;;;;;;;;;;;;;;;;;;5015196;28;20427;-69
2023/08/02 07:59:13;;;;;;;;;;;;;;;;;;5012196;28;20073;-67
2023/08/02 08:01:39;;;;;;;;;;;;;;;;;;5012931;28;20285;-69
2023/08/02 08:04:05;;;;;;;;;;;;;;;;;;5015036;28;19918;-68
2023/08/02 08:06:31;;;;;;;;;;;;;;;;;;5012288;28;19963;-67
2023/08/02 08:08:57;;;;;;;;;;;;;;;;;;5013665;28;20091;-69
2023/08/02 08:11:23;;;;;;;;;;;;;;;;;;5010209;28;19918;-68
2023/08/02 08:13:51;;;;;;;;;;;;;;;;;;5005441;28;20430;-69
2023/08/02 08:16:16;;;;;;;;;;;;;;;;;;5015028;28;20341;-68
2023/08/02 08:18:42;;;;;;;;;;;;;;;;;;5014061;28;19952;-69
2023/08/02 08:21:08;;;;;;;;;;;;;;;;;;5014797;28;19952;-69
2023/08/02 08:23:34;;;;;;;;;;;;;;;;;;5014914;28;20012;-68
2023/08/02 08:26:00;;;;;;;;;;;;;;;;;;5013229;28;19952;-68
2023/08/02 08:28:26;;;;;;;;;;;;;;;;;;5014630;28;20475;-68
2023/08/02 08:30:52;;;;;;;;;;;;;;;;;;5011200;28;19965;-68
2023/08/02 08:33:18;;;;;;;;;;;;;;;;;;5012742;28;19913;-69
2023/08/02 08:35:44;;;;;;;;;;;;;;;;;;5014240;28;19966;-61
2023/08/02 08:38:10;;;;;;;;;;;;;;;;;;5012870;28;19952;-61
2023/08/02 08:40:36;;;;;;;;;;;;;;;;;;5014378;28;19913;-60
2023/08/02 08:43:01;;;;;;;;;;;;;;;;;;5014016;28;20003;-59
2023/08/02 08:45:27;;;;;;;;;;;;;;;;;;5014515;28;20337;-59
2023/08/02 08:47:53;;;;;;;;;;;;;;;;;;5012999;28;19917;-60
2023/08/02 08:50:19;;;;;;;;;;;;;;;;;;5013716;28;19918;-60
2023/08/02 08:52:46;;;;;;;;;;;;;;;;;;5012982;28;19914;-59
2023/08/02 08:55:12;;;;;;;;;;;;;;;;;;5013971;28;19917;-62
2023/08/02 08:57:38;;;;;;;;;;;;;;;;;;5011739;28;19953;-61
2023/08/02 09:00:03;;;;;;;;;;;;;;;;;;5013177;28;20440;-59
2023/08/02 09:02:29;;;;;;;;;;;;;;;;;;5014077;28;19959;-60
2023/08/02 09:04:55;;;;;;;;;;;;;;;;;;5012366;28;20409;-61
2023/08/02 09:07:21;;;;;;;;;;;;;;;;;;5013843;28;19948;-60
2023/08/02 09:09:47;;;;;;;;;;;;;;;;;;5013761;28;19960;-59
2023/08/02 09:12:13;;;;;;;;;;;;;;;;;;5001291;28;20401;-61
2023/08/02 09:14:39;;;;;;;;;;;;;;;;;;5011513;28;19957;-60
2023/08/02 09:17:05;;;;;;;;;;;;;;;;;;5013178;28;19919;-60
2023/08/02 09:19:31;;;;;;;;;;;;;;;;;;5013491;28;19968;-59
2023/08/02 09:21:57;;;;;;;;;;;;;;;;;;5013170;28;19968;-60
2023/08/02 09:24:23;;;;;;;;;;;;;;;;;;5013959;28;19960;-60
2023/08/02 09:26:49;;;;;;;;;;;;;;;;;;5011344;28;19961;-59
2023/08/02 09:29:15;;;;;;;;;;;;;;;;;;5012769;28;19920;-59
2023/08/02 09:31:41;;;;;;;;;;;;;;;;;;5012833;28;19914;-59
2023/08/02 09:34:07;;;;;;;;;;;;;;;;;;5013742;28;19944;-59
2023/08/02 09:36:33;;;;;;;;;;;;;;;;;;5013516;28;20261;-61
2023/08/02 09:39:01;;;;;;;;;;;;;;;;;;5011646;28;19913;-59
2023/08/02 09:41:27;;;;;;;;;;;;;;;;;;5010877;28;19968;-59
2023/08/02 09:43:53;;;;;;;;;;;;;;;;;;5009464;28;19968;-68
2023/08/02 09:46:19;;;;;;;;;;;;;;;;;;5013591;28;20318;-60
2023/08/02 09:48:44;;;;;;;;;;;;;;;;;;5012498;28;20365;-60
2023/08/02 09:51:10;;;;;;;;;;;;;;;;;;5012834;28;20012;-61
2023/08/02 09:53:36;;;;;;;;;;;;;;;;;;5013170;28;19975;-59
2023/08/02 09:56:02;;;;;;;;;;;;;;;;;;5012694;28;19920;-60
2023/08/02 09:58:28;;;;;;;;;;;;;;;;;;5012915;28;19961;-59
2023/08/02 10:00:54;;;;;;;;;;;;;;;;;;5011205;28;20012;-59
2023/08/02 10:03:22;;;;;;;;;;;;;;;;;;5012930;28;20051;-59
2023/08/02 10:05:48;;;;;;;;;;;;;;;;;;5012343;28;20009;-60
2023/08/02 10:08:14;;;;;;;;;;;;;;;;;;5012560;28;19999;-61
2023/08/02 10:10:40;;;;;;;;;;;;;;;;;;5012472;28;20335;-62
2023/08/02 10:13:06;;;;;;;;;;;;;;;;;;5006947;28;19914;-60
2023/08/02 10:15:32;;;;;;;;;;;;;;;;;;5012078;28;19952;-59
2023/08/02 10:17:58;;;;;;;;;;;;;;;;;;5011079;28;20008;-61
2023/08/02 10:20:24;;;;;;;;;;;;;;;;;;5012292;28;19921;-60
2023/08/02 10:22:50;;;;;;;;;;;;;;;;;;5012687;28;19960;-60
2023/08/02 10:25:17;;;;;;;;;;;;;;;;;;5011571;28;20359;-60
2023/08/02 10:27:43;;;;;;;;;;;;;;;;;;5012204;28;19913;-60
2023/08/02 10:30:09;;;;;;;;;;;;;;;;;;5011837;28;19920;-59
2023/08/02 10:32:35;;;;;;;;;;;;;;;;;;5011445;28;20026;-61
2023/08/02 10:35:01;;;;;;;;;;;;;;;;;;5010885;28;19919;-60
2023/08/02 10:37:27;;;;;;;;;;;;;;;;;;5008968;28;20011;-61
2023/08/02 10:39:53;;;;;;;;;;;;;;;;;;5011567;28;20143;-60
2023/08/02 10:42:19;;;;;;;;;;;;;;;;;;5012027;28;19914;-60
2023/08/02 10:44:45;;;;;;;;;;;;;;;;;;5011552;28;19957;-60
2023/08/02 10:47:11;;;;;;;;;;;;;;;;;;5011616;28;20340;-59
2023/08/02 10:49:37;;;;;;;;;;;;;;;;;;5011765;28;20012;-61
2023/08/02 10:52:03;;;;;;;;;;;;;;;;;;5010093;28;19996;-60
2023/08/02 10:54:29;;;;;;;;;;;;;;;;;;5011369;28;20343;-62
2023/08/02 10:56:55;;;;;;;;;;;;;;;;;;5012399;28;19913;-64
2023/08/02 10:59:21;;;;;;;;;;;;;;;;;;5011548;28;19913;-62
2023/08/02 11:01:47;;;;;;;;;;;;;;;;;;5011895;28;19959;-62
2023/08/02 11:04:13;;;;;;;;;;;;;;;;;;5009798;28;20265;-64
2023/08/02 11:06:39;;;;;;;;;;;;;;;;;;5011650;28;19913;-63
2023/08/02 11:09:05;;;;;;;;;;;;;;;;;;5010740;28;19940;-63
2023/08/02 11:11:31;;;;;;;;;;;;;;;;;;5006990;28;19914;-63
2023/08/02 11:13:57;;;;;;;;;;;;;;;;;;5011596;28;19954;-62
2023/08/02 11:16:23;;;;;;;;;;;;;;;;;;5010991;28;19948;-63
2023/08/02 11:18:50;;;;;;;;;;;;;;;;;;5011914;28;19913;-63
2023/08/02 11:21:16;;;;;;;;;;;;;;;;;;5011635;28;19940;-63
2023/08/02 11:23:42;;;;;;;;;;;;;;;;;;5010119;28;19921;-63
2023/08/02 11:26:08;;;;;;;;;;;;;;;;;;5009460;28;19916;-63
2023/08/02 11:28:34;;;;;;;;;;;;;;;;;;5009301;28;20339;-63
2023/08/02 11:30:59;;;;;;;;;;;;;;;;;;5009435;28;19963;-62
2023/08/02 11:33:25;;;;;;;;;;;;;;;;;;5010643;28;19909;-63
2023/08/02 11:35:52;;;;;;;;;;;;;;;;;;5011538;28;19914;-62
2023/08/02 11:38:18;;;;;;;;;;;;;;;;;;5010274;28;19929;-63
2023/08/02 11:40:44;;;;;;;;;;;;;;;;;;5007017;28;20087;-64
2023/08/02 11:43:14;;;;;;;;;;;;;;;;;;5011952;28;19917;-63
2023/08/02 11:45:40;;;;;;;;;;;;;;;;;;5009793;28;20372;-63
2023/08/02 11:48:06;;;;;;;;;;;;;;;;;;5010270;28;19937;-63
2023/08/02 11:50:33;;;;;;;;;;;;;;;;;;5011065;28;19962;-63
2023/08/02 11:52:58;;;;;;;;;;;;;;;;;;5011127;28;19914;-65
2023/08/02 11:55:24;;;;;;;;;;;;;;;;;;5005523;28;19956;-63
2023/08/02 11:57:51;;;;;;;;;;;;;;;;;;4993704;28;20341;-63
2023/08/02 12:00:17;;;;;;;;;;;;;;;;;;5012590;28;19924;-62
2023/08/02 12:02:43;;;;;;;;;;;;;;;;;;5011560;28;19913;-63
2023/08/02 12:05:12;;;;;;;;;;;;;;;;;;5008863;28;19927;-62
2023/08/02 12:07:38;;;;;;;;;;;;;;;;;;5010231;28;19913;-63
2023/08/02 12:10:04;;;;;;;;;;;;;;;;;;5008594;28;20328;-63
2023/08/02 12:12:30;;;;;;;;;;;;;;;;;;5009605;28;19936;-64
2023/08/02 12:14:57;;;;;;;;;;;;;;;;;;4992314;28;19953;-64
2023/08/02 12:17:23;;;;;;;;;;;;;;;;;;5009667;28;19917;-65
2023/08/02 12:19:49;;;;;;;;;;;;;;;;;;5008917;28;19955;-61
2023/08/02 12:22:14;;;;;;;;;;;;;;;;;;5008257;28;19920;-65
2023/08/02 12:24:40;;;;;;;;;;;;;;;;;;5009910;28;20383;-65
2023/08/02 12:27:06;;;;;;;;;;;;;;;;;;5009704;28;19916;-65
2023/08/02 12:29:34;;;;;;;;;;;;;;;;;;5009259;28;19999;-64
2023/08/02 12:32:00;;;;;;;;;;;;;;;;;;5010782;28;19921;-65
2023/08/02 12:34:29;;;;;;;;;;;;;;;;;;5010823;28;19910;-64
2023/08/02 12:36:57;;;;;;;;;;;;;;;;;;5011240;28;20491;-65
2023/08/02 12:39:23;;;;;;;;;;;;;;;;;;4993521;28;19917;-64
2023/08/02 12:41:49;;;;;;;;;;;;;;;;;;5014402;28;19963;-65
2023/08/02 12:44:15;;;;;;;;;;;;;;;;;;5011305;28;19969;-65
2023/08/02 12:46:41;;;;;;;;;;;;;;;;;;5012882;28;20004;-64
2023/08/02 12:49:07;;;;;;;;;;;;;;;;;;5014748;28;19916;-64
2023/08/02 12:51:33;;;;;;;;;;;;;;;;;;5014293;28;20385;-64
2023/08/02 12:53:59;;;;;;;;;;;;;;;;;;5014583;28;19913;-64
2023/08/02 12:56:25;;;;;;;;;;;;;;;;;;5014133;28;20005;-64
2023/08/02 12:58:51;;;;;;;;;;;;;;;;;;5008413;28;19968;-64
2023/08/02 13:01:17;;;;;;;;;;;;;;;;;;5007827;28;19914;-64
2023/08/02 13:03:43;;;;;;;;;;;;;;;;;;5014413;28;20001;-64
2023/08/02 13:06:09;;;;;;;;;;;;;;;;;;5014045;28;19925;-64
2023/08/02 13:08:35;;;;;;;;;;;;;;;;;;5011646;28;19957;-64
2023/08/02 13:11:01;;;;;;;;;;;;;;;;;;5013718;28;20281;-64
2023/08/02 13:13:27;;;;;;;;;;;;;;;;;;5012486;28;19967;-64
2023/08/02 13:15:53;;;;;;;;;;;;;;;;;;5012800;28;20349;-70
2023/08/02 13:18:19;;;;;;;;;;;;;;;;;;5014327;28;20012;-69
2023/08/02 13:20:45;;;;;;;;;;;;;;;;;;5010937;28;19914;-67
2023/08/02 13:23:11;;;;;;;;;;;;;;;;;;5013309;28;19965;-70
2023/08/02 13:25:37;;;;;;;;;;;;;;;;;;5015689;28;20011;-69
2023/08/02 13:28:02;;;;;;;;;;;;;;;;;;5008386;28;20004;-71
2023/08/02 13:30:28;;;;;;;;;;;;;;;;;;5011703;28;19920;-70
2023/08/02 13:32:54;;;;;;;;;;;;;;;;;;5013621;28;20412;-70
2023/08/02 13:35:20;;;;;;;;;;;;;;;;;;5013491;28;20396;-68
2023/08/02 13:37:47;;;;;;;;;;;;;;;;;;5013395;28;20008;-70
2023/08/02 13:40:13;;;;;;;;;;;;;;;;;;5012427;28;19921;-70
2023/08/02 13:42:39;;;;;;;;;;;;;;;;;;5011617;28;19920;-71
2023/08/02 13:45:05;;;;;;;;;;;;;;;;;;5012257;28;19917;-71
2023/08/02 13:47:31;;;;;;;;;;;;;;;;;;5011743;28;19917;-73
2023/08/02 13:49:57;;;;;;;;;;;;;;;;;;5007668;28;20440;-66
2023/08/02 13:52:23;;;;;;;;;;;;;;;;;;4989754;28;20025;-72
2023/08/02 13:54:49;;;;;;;;;;;;;;;;;;5020840;28;20044;-70
2023/08/02 13:57:14;;;;;;;;;;;;;;;;;;5003950;28;19922;-71
2023/08/02 13:59:40;;;;;;;;;;;;;;;;;;5005609;28;19964;-75
2023/08/02 14:02:07;;;;;;;;;;;;;;;;;;5002785;28;19982;-72
2023/08/02 14:04:32;;;;;;;;;;;;;;;;;;5003548;28;19985;-70
2023/08/02 14:06:58;;;;;;;;;;;;;;;;;;5006821;28;20005;-75
2023/08/02 14:09:24;;;;;;;;;;;;;;;;;;4987741;28;20554;-72
2023/08/02 14:11:50;;;;;;;;;;;;;;;;;;4987856;28;19971;-74
2023/08/02 14:14:16;;;;;;;;;;;;;;;;;;5004514;28;20316;-73
2023/08/02 14:16:42;;;;;;;;;;;;;;;;;;5005791;28;19948;-72
2023/08/02 14:19:08;;;;;;;;;;;;;;;;;;5005567;28;19924;-70
2023/08/02 14:21:34;;;;;;;;;;;;;;;;;;5004393;28;19945;-73
2023/08/02 14:24:00;;;;;;;;;;;;;;;;;;5005460;28;20017;-60
2023/08/02 14:26:26;;;;;;;;;;;;;;;;;;5000796;28;19914;-60
2023/08/02 14:28:53;;;;;;;;;;;;;;;;;;5003117;28;19918;-60
2023/08/02 14:31:19;;;;;;;;;;;;;;;;;;5002720;28;19913;-61
2023/08/02 14:33:45;;;;;;;;;;;;;;;;;;5005495;28;20357;-63
2023/08/02 14:36:11;;;;;;;;;;;;;;;;;;5005405;28;19920;-62
2023/08/02 14:38:39;;;;;;;;;;;;;;;;;;5006915;28;19939;-60
2023/08/02 14:41:05;;;;;;;;;;;;;;;;;;5002807;28;20067;-63
2023/08/02 14:43:31;;;;;;;;;;;;;;;;;;5001734;28;20492;-60
2023/08/02 14:45:57;;;;;;;;;;;;;;;;;;5004891;28;19976;-60
2023/08/02 14:48:22;;;;;;;;;;;;;;;;;;5003537;28;20296;-60
2023/08/02 14:50:48;;;;;;;;;;;;;;;;;;5003004;28;19923;-63
2023/08/02 14:53:14;;;;;;;;;;;;;;;;;;5003814;28;19937;-60
2023/08/02 14:55:40;;;;;;;;;;;;;;;;;;5006707;28;20389;-63
2023/08/02 14:58:06;;;;;;;;;;;;;;;;;;5001317;28;19961;-62
2023/08/02 15:00:32;;;;;;;;;;;;;;;;;;5008394;28;19962;-60
2023/08/02 15:02:58;;;;;;;;;;;;;;;;;;5009113;28;20403;-62
2023/08/02 15:05:24;;;;;;;;;;;;;;;;;;4985186;28;19937;-61
2023/08/02 15:07:50;;;;;;;;;;;;;;;;;;5004039;28;19965;-60
2023/08/02 15:10:16;;;;;;;;;;;;;;;;;;5004489;28;20410;-60
2023/08/02 15:12:42;;;;;;;;;;;;;;;;;;5000740;28;21914;-63
2023/08/02 15:15:08;;;;;;;;;;;;;;;;;;5004742;28;19953;-60
2023/08/02 15:17:34;;;;;;;;;;;;;;;;;;5005571;28;19917;-60
2023/08/02 15:20:00;;;;;;;;;;;;;;;;;;5004160;28;19960;-60
2023/08/02 15:22:26;;;;;;;;;;;;;;;;;;5005770;28;19948;-63
2023/08/02 15:24:52;;;;;;;;;;;;;;;;;;5005497;28;19917;-61
2023/08/02 15:27:18;;;;;;;;;;;;;;;;;;5003293;28;19948;-62
2023/08/02 15:29:44;;;;;;;;;;;;;;;;;;5002608;28;19921;-63
2023/08/02 15:32:09;;;;;;;;;;;;;;;;;;5006037;28;20325;-62
2023/08/02 15:34:35;;;;;;;;;;;;;;;;;;5008283;28;19914;-68
2023/08/02 15:37:01;;;;;;;;;;;;;;;;;;5004912;28;19914;-66
2023/08/02 15:39:27;;;;;;;;;;;;;;;;;;5011039;28;19955;-68
2023/08/02 15:41:53;;;;;;;;;;;;;;;;;;5010829;28;20017;-66
2023/08/02 15:44:19;;;;;;;;;;;;;;;;;;5012215;28;20692;-67
2023/08/02 15:46:45;;;;;;;;;;;;;;;;;;5007825;28;19920;-67
2023/08/02 15:49:11;;;;;;;;;;;;;;;;;;5009947;28;20000;-68
2023/08/02 15:51:37;;;;;;;;;;;;;;;;;;5009435;28;20039;-66
2023/08/02 15:54:03;;;;;;;;;;;;;;;;;;5009947;28;20414;-67
2023/08/02 15:56:29;;;;;;;;;;;;;;;;;;5011055;28;19968;-66
2023/08/02 15:58:55;;;;;;;;;;;;;;;;;;5010573;28;19921;-66
2023/08/02 16:01:22;;;;;;;;;;;;;;;;;;5004434;28;20357;-67
2023/08/02 16:03:48;;;;;;;;;;;;;;;;;;5006460;28;19921;-66
2023/08/02 16:06:14;;;;;;;;;;;;;;;;;;4994215;28;20008;-66
2023/08/02 16:08:40;;;;;;;;;;;;;;;;;;5010657;28;19914;-66
2023/08/02 16:11:06;;;;;;;;;;;;;;;;;;5007631;28;20397;-67
2023/08/02 16:13:32;;;;;;;;;;;;;;;;;;5008884;28;19940;-66
2023/08/02 16:15:58;;;;;;;;;;;;;;;;;;5013866;28;20392;-66
2023/08/02 16:18:24;;;;;;;;;;;;;;;;;;5008407;28;19952;-67
2023/08/02 16:20:49;;;;;;;;;;;;;;;;;;5011213;28;19918;-67
2023/08/02 16:23:15;;;;;;;;;;;;;;;;;;5012508;28;19920;-67
2023/08/02 16:25:41;;;;;;;;;;;;;;;;;;5014518;28;19910;-66
2023/08/02 16:28:07;;;;;;;;;;;;;;;;;;5006704;28;20369;-66
2023/08/02 16:30:33;;;;;;;;;;;;;;;;;;5011430;28;19919;-66
2023/08/02 16:32:59;;;;;;;;;;;;;;;;;;5013476;28;20000;-66
2023/08/02 16:35:25;;;;;;;;;;;;;;;;;;5012019;28;19945;-66
2023/08/02 16:37:51;;;;;;;;;;;;;;;;;;5013960;28;19956;-65